createdAt,value
2018-04-10T00:00:32.850Z,0
2018-04-10T00:01:32.867Z,0
2018-04-10T00:02:32.805Z,0
2018-04-10T00:03:32.788Z,0
2018-04-10T00:04:32.907Z,0
2018-04-10T00:05:32.959Z,0
2018-04-10T00:06:32.903Z,0
2018-04-10T00:07:32.933Z,0
2018-04-10T00:08:32.934Z,0
2018-04-10T00:09:32.906Z,0
2018-04-10T00:10:32.861Z,0
2018-04-10T00:11:32.939Z,0
2018-04-10T00:12:32.887Z,0
2018-04-10T00:13:32.904Z,0
2018-04-10T00:14:32.951Z,0
2018-04-10T00:15:32.928Z,0
2018-04-10T00:16:32.812Z,0
2018-04-10T00:17:32.924Z,0
2018-04-10T00:18:32.881Z,0
2018-04-10T00:19:32.840Z,0
2018-04-10T00:20:32.873Z,0
2018-04-10T00:21:32.843Z,0
2018-04-10T00:22:32.880Z,0
2018-04-10T00:23:32.904Z,0
2018-04-10T00:24:32.889Z,0
2018-04-10T00:25:32.978Z,0
2018-04-10T00:26:32.925Z,0
2018-04-10T00:27:32.946Z,0
2018-04-10T00:28:32.947Z,0
2018-04-10T00:29:32.921Z,0
2018-04-10T00:30:32.986Z,0
2018-04-10T00:31:32.949Z,0
2018-04-10T00:32:32.917Z,0
2018-04-10T00:33:32.949Z,0
2018-04-10T00:34:32.962Z,0
2018-04-10T00:35:32.885Z,0
2018-04-10T00:36:32.958Z,0
2018-04-10T00:37:32.888Z,0
2018-04-10T00:38:32.958Z,0
2018-04-10T00:39:32.963Z,0
2018-04-10T00:40:32.886Z,0
2018-04-10T00:41:32.961Z,0
2018-04-10T00:42:32.888Z,0
2018-04-10T00:43:32.961Z,0
2018-04-10T00:44:32.956Z,0
2018-04-10T00:45:32.884Z,0
2018-04-10T00:46:32.955Z,0
2018-04-10T00:47:32.883Z,0
2018-04-10T00:48:32.954Z,0
2018-04-10T00:49:32.886Z,0
2018-04-10T00:50:32.958Z,0
2018-04-10T00:51:32.889Z,0
2018-04-10T00:52:32.959Z,0
2018-04-10T00:53:32.886Z,0
2018-04-10T00:54:32.957Z,0
2018-04-10T00:55:32.853Z,0
2018-04-10T00:56:32.925Z,0
2018-04-10T00:57:32.900Z,0
2018-04-10T00:58:32.899Z,0
2018-04-10T00:59:32.929Z,0
2018-04-10T01:00:33.009Z,0
2018-04-10T01:01:32.900Z,0
2018-04-10T01:02:32.900Z,0
2018-04-10T01:03:32.915Z,0
2018-04-10T01:04:32.974Z,0
2018-04-10T01:05:32.932Z,0
2018-04-10T01:06:32.877Z,0
2018-04-10T01:07:33.009Z,0
2018-04-10T01:08:32.937Z,0
2018-04-10T01:09:32.997Z,0
2018-04-10T01:10:32.935Z,0
2018-04-10T01:11:33.006Z,0
2018-04-10T01:12:32.896Z,0
2018-04-10T01:13:32.998Z,0
2018-04-10T01:14:33.006Z,0
2018-04-10T01:15:32.881Z,0
2018-04-10T01:16:33.039Z,0
2018-04-10T01:17:32.919Z,0
2018-04-10T01:18:33.010Z,0
2018-04-10T01:19:33.017Z,0
2018-04-10T01:20:32.894Z,0
2018-04-10T01:21:32.982Z,0
2018-04-10T01:22:32.976Z,0
2018-04-10T01:23:33.007Z,0
2018-04-10T01:24:32.947Z,0
2018-04-10T01:25:32.888Z,0
2018-04-10T01:26:32.989Z,0
2018-04-10T01:27:33.018Z,0
2018-04-10T01:28:32.905Z,0
2018-04-10T01:29:33.017Z,0
2018-04-10T01:30:32.930Z,0
2018-04-10T01:31:33.018Z,0
2018-04-10T01:32:33.017Z,0
2018-04-10T01:33:33.014Z,0
2018-04-10T01:34:32.961Z,0
2018-04-10T01:35:32.919Z,0
2018-04-10T01:36:32.988Z,0
2018-04-10T01:37:32.918Z,0
2018-04-10T01:38:32.986Z,0
2018-04-10T01:39:32.988Z,0
2018-04-10T01:40:32.919Z,0
2018-04-10T01:41:32.993Z,0
2018-04-10T01:42:32.917Z,0
2018-04-10T01:43:32.916Z,0
2018-04-10T01:44:32.989Z,0
2018-04-10T01:45:32.963Z,0
2018-04-10T01:46:32.992Z,0
2018-04-10T01:47:33.031Z,0
2018-04-10T01:48:32.997Z,0
2018-04-10T01:49:33.001Z,0
2018-04-10T01:50:33.027Z,0
2018-04-10T01:51:32.968Z,0
2018-04-10T01:52:32.967Z,0
2018-04-10T01:53:33.005Z,0
2018-04-10T01:54:33.024Z,0
2018-04-10T01:55:32.925Z,0
2018-04-10T01:56:33.008Z,0
2018-04-10T01:57:32.965Z,0
2018-04-10T01:58:32.974Z,0
2018-04-10T01:59:33.002Z,0
2018-04-10T02:00:33.011Z,0
2018-04-10T02:01:33.027Z,0
2018-04-10T02:02:33.043Z,0
2018-04-10T02:03:32.979Z,0
2018-04-10T02:04:33.070Z,0
2018-04-10T02:05:33.035Z,0
2018-04-10T02:06:32.988Z,0
2018-04-10T02:07:32.985Z,0
2018-04-10T02:08:32.976Z,0
2018-04-10T02:09:32.929Z,0
2018-04-10T02:10:32.932Z,0
2018-04-10T02:11:33.011Z,0
2018-04-10T02:12:33.042Z,0
2018-04-10T02:13:33.042Z,0
2018-04-10T02:14:33.012Z,0
2018-04-10T02:15:32.917Z,0
2018-04-10T02:16:32.976Z,0
2018-04-10T02:17:33.012Z,0
2018-04-10T02:18:32.975Z,0
2018-04-10T02:19:32.984Z,0
2018-04-10T02:20:33.041Z,0
2018-04-10T02:21:33.075Z,0
2018-04-10T02:22:33.045Z,0
2018-04-10T02:23:33.048Z,0
2018-04-10T02:24:33.091Z,0
2018-04-10T02:25:32.957Z,0
2018-04-10T02:26:32.990Z,0
2018-04-10T02:27:33.063Z,0
2018-04-10T02:28:32.987Z,0
2018-04-10T02:29:32.961Z,0
2018-04-10T02:30:33.059Z,0
2018-04-10T02:31:33.037Z,0
2018-04-10T02:32:32.943Z,0
2018-04-10T02:33:32.946Z,0
2018-04-10T02:34:33.054Z,0
2018-04-10T02:35:32.997Z,0
2018-04-10T02:36:33.049Z,0
2018-04-10T02:37:32.966Z,0
2018-04-10T02:38:33.093Z,0
2018-04-10T02:39:33.016Z,0
2018-04-10T02:40:32.965Z,0
2018-04-10T02:41:33.037Z,0
2018-04-10T02:42:32.968Z,0
2018-04-10T02:43:33.006Z,0
2018-04-10T02:44:32.969Z,0
2018-04-10T02:45:33.100Z,0
2018-04-10T02:46:32.989Z,0
2018-04-10T02:47:32.959Z,0
2018-04-10T02:48:32.953Z,0
2018-04-10T02:49:32.989Z,0
2018-04-10T02:50:32.952Z,0
2018-04-10T02:51:33.008Z,0
2018-04-10T02:52:32.958Z,0
2018-04-10T02:53:32.957Z,0
2018-04-10T02:54:32.993Z,0
2018-04-10T02:55:33.007Z,0
2018-04-10T02:56:33.060Z,0
2018-04-10T02:57:33.074Z,0
2018-04-10T02:58:33.049Z,0
2018-04-10T02:59:32.978Z,0
2018-04-10T03:00:33.006Z,0
2018-04-10T03:01:33.020Z,0
2018-04-10T03:02:33.012Z,0
2018-04-10T03:03:32.965Z,0
2018-04-10T03:04:33.043Z,0
2018-04-10T03:05:33.067Z,0
2018-04-10T03:06:32.979Z,0
2018-04-10T03:07:33.046Z,0
2018-04-10T03:08:33.053Z,0
2018-04-10T03:09:33.055Z,0
2018-04-10T03:10:32.984Z,0
2018-04-10T03:11:32.944Z,0
2018-04-10T03:12:32.980Z,0
2018-04-10T03:13:32.939Z,0
2018-04-10T03:14:32.982Z,0
2018-04-10T03:15:32.996Z,0
2018-04-10T03:16:32.971Z,0
2018-04-10T03:17:33.016Z,0
2018-04-10T03:18:33.067Z,0
2018-04-10T03:19:33.093Z,0
2018-04-10T03:20:33.078Z,0
2018-04-10T03:21:33.103Z,0
2018-04-10T03:22:32.974Z,0
2018-04-10T03:23:33.092Z,0
2018-04-10T03:24:32.984Z,0
2018-04-10T03:25:33.069Z,0
2018-04-10T03:26:33.064Z,0
2018-04-10T03:27:33.067Z,0
2018-04-10T03:28:32.995Z,0
2018-04-10T03:29:32.991Z,0
2018-04-10T03:30:32.993Z,0
2018-04-10T03:31:32.961Z,0
2018-04-10T03:32:33.035Z,0
2018-04-10T03:33:33.062Z,0
2018-04-10T03:34:33.068Z,0
2018-04-10T03:35:33.015Z,0
2018-04-10T03:36:32.983Z,0
2018-04-10T03:37:33.068Z,0
2018-04-10T03:38:33.031Z,0
2018-04-10T03:39:33.074Z,0
2018-04-10T03:40:32.993Z,0
2018-04-10T03:41:33.079Z,0
2018-04-10T03:42:33.047Z,0
2018-04-10T03:43:33.100Z,0
2018-04-10T03:44:33.034Z,0
2018-04-10T03:45:32.994Z,0
2018-04-10T03:46:33.049Z,0
2018-04-10T03:47:33.070Z,0
2018-04-10T03:48:33.092Z,0
2018-04-10T03:49:33.099Z,0
2018-04-10T03:50:33.103Z,0
2018-04-10T03:51:33.083Z,0
2018-04-10T03:52:33.042Z,0
2018-04-10T03:53:33.073Z,0
2018-04-10T03:54:33.109Z,0
2018-04-10T03:55:33.098Z,0
2018-04-10T03:56:33.083Z,0
2018-04-10T03:57:33.042Z,0
2018-04-10T03:58:33.021Z,0
2018-04-10T03:59:33.011Z,0
2018-04-10T04:00:33.083Z,0
2018-04-10T04:01:33.087Z,0
2018-04-10T04:02:33.085Z,4
2018-04-10T04:03:33.105Z,4
2018-04-10T04:04:33.089Z,4
2018-04-10T04:05:33.084Z,4
2018-04-10T04:06:33.086Z,4
2018-04-10T04:07:33.088Z,8
2018-04-10T04:08:33.005Z,4
2018-04-10T04:09:33.057Z,8
2018-04-10T04:10:33.092Z,8
2018-04-10T04:11:33.087Z,12
2018-04-10T04:12:33.120Z,12
2018-04-10T04:13:33.098Z,16
2018-04-10T04:14:33.058Z,20
2018-04-10T04:15:33.128Z,24
2018-04-10T04:16:33.061Z,32
2018-04-10T04:17:33.058Z,36
2018-04-10T04:18:33.014Z,44
2018-04-10T04:19:33.070Z,52
2018-04-10T04:20:33.092Z,60
2018-04-10T04:21:33.152Z,68
2018-04-10T04:22:33.128Z,80
2018-04-10T04:23:33.014Z,96
2018-04-10T04:24:33.066Z,112
2018-04-10T04:25:33.117Z,124
2018-04-10T04:26:33.082Z,144
2018-04-10T04:27:32.967Z,168
2018-04-10T04:28:33.003Z,192
2018-04-10T04:29:32.952Z,216
2018-04-10T04:30:32.971Z,244
2018-04-10T04:31:32.969Z,276
2018-04-10T04:32:33.089Z,312
2018-04-10T04:33:33.002Z,352
2018-04-10T04:34:33.093Z,396
2018-04-10T04:35:32.996Z,448
2018-04-10T04:36:33.007Z,504
2018-04-10T04:37:33.101Z,560
2018-04-10T04:38:33.114Z,620
2018-04-10T04:39:33.071Z,676
2018-04-10T04:40:33.103Z,736
2018-04-10T04:41:33.107Z,800
2018-04-10T04:42:33.118Z,876
2018-04-10T04:43:33.185Z,968
2018-04-10T04:44:33.106Z,1064
2018-04-10T04:45:33.085Z,1176
2018-04-10T04:46:33.040Z,1284
2018-04-10T04:47:33.040Z,1408
2018-04-10T04:48:33.041Z,1536
2018-04-10T04:49:33.042Z,1676
2018-04-10T04:50:33.044Z,1820
2018-04-10T04:51:33.137Z,1976
2018-04-10T04:52:33.043Z,2148
2018-04-10T04:53:33.149Z,2324
2018-04-10T04:54:33.042Z,2504
2018-04-10T04:55:33.134Z,2696
2018-04-10T04:56:33.009Z,2900
2018-04-10T04:57:33.096Z,3140
2018-04-10T04:58:33.042Z,3380
2018-04-10T04:59:33.096Z,3628
2018-04-10T05:00:33.008Z,3880
2018-04-10T05:01:33.008Z,4116
2018-04-10T05:02:33.097Z,4360
2018-04-10T05:03:33.052Z,4596
2018-04-10T05:04:33.126Z,4824
2018-04-10T05:05:33.080Z,5036
2018-04-10T05:06:33.070Z,5248
2018-04-10T05:07:33.064Z,5456
2018-04-10T05:08:33.143Z,5672
2018-04-10T05:09:32.977Z,5904
2018-04-10T05:10:33.074Z,6144
2018-04-10T05:11:33.074Z,6404
2018-04-10T05:12:33.075Z,6680
2018-04-10T05:13:32.985Z,7000
2018-04-10T05:14:33.030Z,7352
2018-04-10T05:15:33.032Z,7732
2018-04-10T05:16:33.120Z,8148
2018-04-10T05:17:33.003Z,8588
2018-04-10T05:18:33.120Z,9064
2018-04-10T05:19:33.018Z,9548
2018-04-10T05:20:33.121Z,10068
2018-04-10T05:21:33.147Z,10584
2018-04-10T05:22:33.092Z,11092
2018-04-10T05:23:33.085Z,11668
2018-04-10T05:24:33.121Z,12180
2018-04-10T05:25:33.061Z,12732
2018-04-10T05:26:33.057Z,13280
2018-04-10T05:27:33.097Z,13804
2018-04-10T05:28:33.026Z,14276
2018-04-10T05:29:33.131Z,14748
2018-04-10T05:30:33.082Z,15180
2018-04-10T05:31:33.052Z,15620
2018-04-10T05:32:33.041Z,16052
2018-04-10T05:33:33.039Z,16444
2018-04-10T05:34:33.127Z,16820
2018-04-10T05:35:33.043Z,17152
2018-04-10T05:36:33.169Z,17496
2018-04-10T05:37:33.138Z,17880
2018-04-10T05:38:33.043Z,18216
2018-04-10T05:39:33.140Z,18516
2018-04-10T05:40:33.172Z,18712
2018-04-10T05:41:33.155Z,18832
2018-04-10T05:42:33.127Z,18956
2018-04-10T05:43:33.182Z,19120
2018-04-10T05:44:33.059Z,19292
2018-04-10T05:45:33.139Z,19504
2018-04-10T05:46:33.138Z,19708
2018-04-10T05:47:33.122Z,19904
2018-04-10T05:48:33.144Z,20072
2018-04-10T05:49:33.201Z,21504
2018-04-10T05:50:33.200Z,23904
2018-04-10T05:51:33.186Z,24608
2018-04-10T05:52:33.152Z,25792
2018-04-10T05:53:33.174Z,25472
2018-04-10T05:54:33.182Z,25760
2018-04-10T05:55:33.158Z,25600
2018-04-10T05:56:33.154Z,25920
2018-04-10T05:57:33.155Z,27072
2018-04-10T05:58:33.082Z,27232
2018-04-10T05:59:33.157Z,27200
2018-04-10T06:00:33.155Z,27264
2018-04-10T06:01:33.083Z,27488
2018-04-10T06:02:33.155Z,27808
2018-04-10T06:03:33.084Z,28320
2018-04-10T06:04:33.157Z,28928
2018-04-10T06:05:33.084Z,29280
2018-04-10T06:06:33.115Z,29440
2018-04-10T06:07:33.152Z,29504
2018-04-10T06:08:33.064Z,29568
2018-04-10T06:09:33.077Z,29728
2018-04-10T06:10:33.149Z,30176
2018-04-10T06:11:33.149Z,31072
2018-04-10T06:12:33.153Z,32160
2018-04-10T06:13:33.157Z,32928
2018-04-10T06:14:33.065Z,33248
2018-04-10T06:15:33.085Z,33280
2018-04-10T06:16:33.164Z,33408
2018-04-10T06:17:33.093Z,33568
2018-04-10T06:18:33.093Z,33984
2018-04-10T06:19:33.166Z,34816
2018-04-10T06:20:33.169Z,35968
2018-04-10T06:21:33.101Z,37312
2018-04-10T06:22:33.096Z,38656
2018-04-10T06:23:33.191Z,39552
2018-04-10T06:24:33.100Z,40128
2018-04-10T06:25:33.102Z,40288
2018-04-10T06:26:33.224Z,40416
2018-04-10T06:27:33.099Z,40704
2018-04-10T06:28:33.176Z,41088
2018-04-10T06:29:33.106Z,41216
2018-04-10T06:30:33.176Z,41504
2018-04-10T06:31:33.164Z,42272
2018-04-10T06:32:33.105Z,43328
2018-04-10T06:33:33.102Z,44128
2018-04-10T06:34:33.173Z,44096
2018-04-10T06:35:33.177Z,43968
2018-04-10T06:36:33.174Z,44864
2018-04-10T06:37:33.123Z,45344
2018-04-10T06:38:33.171Z,46464
2018-04-10T06:39:33.066Z,46304
2018-04-10T06:40:33.173Z,48768
2018-04-10T06:41:33.082Z,50048
2018-04-10T06:42:33.101Z,50464
2018-04-10T06:43:33.138Z,50304
2018-04-10T06:44:33.053Z,49312
2018-04-10T06:45:33.172Z,49472
2018-04-10T06:46:33.125Z,51744
2018-04-10T06:47:33.141Z,53440
2018-04-10T06:48:33.106Z,52384
2018-04-10T06:49:33.147Z,54080
2018-04-10T06:50:33.185Z,54336
2018-04-10T06:51:33.226Z,53728
2018-04-10T06:52:33.213Z,51808
2018-04-10T06:53:33.156Z,52928
2018-04-10T06:54:33.246Z,51456
2018-04-10T06:55:33.163Z,53696
2018-04-10T06:56:33.198Z,55904
2018-04-10T06:57:33.125Z,60160
2018-04-10T06:58:33.123Z,60896
2018-04-10T06:59:33.213Z,60736
2018-04-10T07:00:33.127Z,62240
2018-04-10T07:01:33.120Z,62112
2018-04-10T07:02:33.122Z,62752
2018-04-10T07:03:33.199Z,63840
2018-04-10T07:04:33.123Z,65248
2018-04-10T07:05:33.198Z,66080
2018-04-10T07:06:33.039Z,65536
2018-04-10T07:07:33.074Z,65184
2018-04-10T07:08:33.058Z,65024
2018-04-10T07:09:33.068Z,65760
2018-04-10T07:10:33.021Z,66784
2018-04-10T07:11:33.019Z,67232
2018-04-10T07:12:33.019Z,69152
2018-04-10T07:13:33.105Z,70336
2018-04-10T07:14:33.042Z,70816
2018-04-10T07:15:33.025Z,70592
2018-04-10T07:16:33.194Z,70080
2018-04-10T07:17:33.278Z,70016
2018-04-10T07:18:33.117Z,69504
2018-04-10T07:19:33.195Z,69024
2018-04-10T07:20:33.129Z,68288
2018-04-10T07:21:33.108Z,67904
2018-04-10T07:22:33.198Z,68256
2018-04-10T07:23:33.198Z,68960
2018-04-10T07:24:33.196Z,70016
2018-04-10T07:25:33.146Z,70560
2018-04-10T07:26:33.229Z,70848
2018-04-10T07:27:33.130Z,70880
2018-04-10T07:28:33.206Z,70848
2018-04-10T07:29:33.174Z,70752
2018-04-10T07:30:33.206Z,70528
2018-04-10T07:31:33.250Z,70208
2018-04-10T07:32:33.135Z,70112
2018-04-10T07:33:33.203Z,70144
2018-04-10T07:34:33.252Z,70080
2018-04-10T07:35:33.235Z,69504
2018-04-10T07:36:33.214Z,69216
2018-04-10T07:37:33.213Z,68832
2018-04-10T07:38:33.212Z,69280
2018-04-10T07:39:33.209Z,70496
2018-04-10T07:40:33.195Z,72640
2018-04-10T07:41:33.254Z,75008
2018-04-10T07:42:33.218Z,77056
2018-04-10T07:43:33.118Z,78112
2018-04-10T07:44:33.221Z,77408
2018-04-10T07:45:33.228Z,76064
2018-04-10T07:46:33.180Z,73696
2018-04-10T07:47:33.195Z,72000
2018-04-10T07:48:33.176Z,71296
2018-04-10T07:49:33.139Z,71744
2018-04-10T07:50:33.248Z,73344
2018-04-10T07:51:33.218Z,76160
2018-04-10T07:52:33.140Z,78368
2018-04-10T07:53:33.251Z,80256
2018-04-10T07:54:33.260Z,81344
2018-04-10T07:55:33.222Z,81248
2018-04-10T07:56:33.219Z,79808
2018-04-10T07:57:33.144Z,78176
2018-04-10T07:58:33.222Z,76256
2018-04-10T07:59:33.131Z,75424
2018-04-10T08:00:33.119Z,75968
2018-04-10T08:01:33.224Z,77088
2018-04-10T08:02:33.213Z,78304
2018-04-10T08:03:33.191Z,79744
2018-04-10T08:04:33.174Z,80288
2018-04-10T08:05:33.225Z,80224
2018-04-10T08:06:33.189Z,80384
2018-04-10T08:07:33.188Z,80736
2018-04-10T08:08:33.172Z,81344
2018-04-10T08:09:33.136Z,81792
2018-04-10T08:10:33.108Z,81824
2018-04-10T08:11:33.137Z,83072
2018-04-10T08:12:33.122Z,84128
2018-04-10T08:13:33.197Z,84480
2018-04-10T08:14:33.157Z,85568
2018-04-10T08:15:33.230Z,85696
2018-04-10T08:16:33.187Z,85664
2018-04-10T08:17:33.097Z,86208
2018-04-10T08:18:33.155Z,87328
2018-04-10T08:19:33.097Z,88064
2018-04-10T08:20:33.197Z,88928
2018-04-10T08:21:33.146Z,90816
2018-04-10T08:22:33.192Z,92544
2018-04-10T08:23:33.101Z,93856
2018-04-10T08:24:33.096Z,94112
2018-04-10T08:25:33.189Z,93280
2018-04-10T08:26:33.235Z,91872
2018-04-10T08:27:33.297Z,90688
2018-04-10T08:28:33.238Z,88960
2018-04-10T08:29:33.242Z,88032
2018-04-10T08:30:33.237Z,88032
2018-04-10T08:31:33.167Z,89120
2018-04-10T08:32:33.238Z,91456
2018-04-10T08:33:33.170Z,94560
2018-04-10T08:34:33.151Z,97280
2018-04-10T08:35:33.152Z,98656
2018-04-10T08:36:33.260Z,97728
2018-04-10T08:37:33.181Z,95456
2018-04-10T08:38:33.254Z,92864
2018-04-10T08:39:33.183Z,91872
2018-04-10T08:40:33.251Z,91904
2018-04-10T08:41:33.184Z,92736
2018-04-10T08:42:33.253Z,94240
2018-04-10T08:43:33.254Z,96064
2018-04-10T08:44:33.183Z,97856
2018-04-10T08:45:33.182Z,98464
2018-04-10T08:46:33.251Z,93728
2018-04-10T08:47:33.224Z,99072
2018-04-10T08:48:33.278Z,99328
2018-04-10T08:49:33.301Z,98752
2018-04-10T08:50:33.266Z,98752
2018-04-10T08:51:33.287Z,99520
2018-04-10T08:52:33.218Z,100928
2018-04-10T08:53:33.276Z,101664
2018-04-10T08:54:33.297Z,102848
2018-04-10T08:55:33.183Z,104256
2018-04-10T08:56:33.302Z,103232
2018-04-10T08:57:33.196Z,101248
2018-04-10T08:58:33.266Z,98976
2018-04-10T08:59:33.259Z,97472
2018-04-10T09:00:33.196Z,97440
2018-04-10T09:01:33.285Z,97664
2018-04-10T09:02:33.219Z,99872
2018-04-10T09:03:33.196Z,102400
2018-04-10T09:04:33.199Z,104224
2018-04-10T09:05:33.196Z,104928
2018-04-10T09:06:33.203Z,105952
2018-04-10T09:07:33.192Z,104704
2018-04-10T09:08:33.172Z,104288
2018-04-10T09:09:33.186Z,105632
2018-04-10T09:10:33.313Z,107008
2018-04-10T09:11:33.291Z,108960
2018-04-10T09:12:33.291Z,105632
2018-04-10T09:13:33.282Z,108320
2018-04-10T09:14:33.299Z,106752
2018-04-10T09:15:33.302Z,105088
2018-04-10T09:16:33.195Z,105056
2018-04-10T09:17:33.239Z,105248
2018-04-10T09:18:33.303Z,105024
2018-04-10T09:19:33.249Z,105344
2018-04-10T09:20:33.333Z,107168
2018-04-10T09:21:33.219Z,109120
2018-04-10T09:22:33.303Z,110048
2018-04-10T09:23:33.255Z,109952
2018-04-10T09:24:33.257Z,109312
2018-04-10T09:25:33.217Z,108992
2018-04-10T09:26:33.214Z,109280
2018-04-10T09:27:33.279Z,105888
2018-04-10T09:28:33.199Z,108192
2018-04-10T09:29:33.196Z,110816
2018-04-10T09:30:33.338Z,110784
2018-04-10T09:31:33.245Z,110560
2018-04-10T09:32:33.245Z,110720
2018-04-10T09:33:33.217Z,110176
2018-04-10T09:34:33.210Z,110432
2018-04-10T09:35:33.222Z,110784
2018-04-10T09:36:33.188Z,111296
2018-04-10T09:37:33.286Z,112256
2018-04-10T09:38:33.306Z,114112
2018-04-10T09:39:33.256Z,116032
2018-04-10T09:40:33.198Z,114016
2018-04-10T09:41:33.330Z,114112
2018-04-10T09:42:33.260Z,113248
2018-04-10T09:43:33.193Z,112032
2018-04-10T09:44:33.290Z,111872
2018-04-10T09:45:33.249Z,114304
2018-04-10T09:46:33.179Z,117440
2018-04-10T09:47:33.222Z,119776
2018-04-10T09:48:33.200Z,121632
2018-04-10T09:49:33.168Z,122592
2018-04-10T09:50:33.222Z,122208
2018-04-10T09:51:33.258Z,119872
2018-04-10T09:52:33.223Z,116864
2018-04-10T09:53:33.295Z,115136
2018-04-10T09:54:33.291Z,114496
2018-04-10T09:55:33.294Z,114208
2018-04-10T09:56:33.293Z,114656
2018-04-10T09:57:33.277Z,111232
2018-04-10T09:58:33.267Z,109984
2018-04-10T09:59:33.300Z,108128
2018-04-10T10:00:33.303Z,108288
2018-04-10T10:01:33.307Z,104960
2018-04-10T10:02:33.301Z,106944
2018-04-10T10:03:33.326Z,104896
2018-04-10T10:04:33.211Z,105952
2018-04-10T10:05:33.267Z,115584
2018-04-10T10:06:33.246Z,118176
2018-04-10T10:07:33.238Z,117952
2018-04-10T10:08:33.310Z,114112
2018-04-10T10:09:33.241Z,100768
2018-04-10T10:10:33.240Z,100096
2018-04-10T10:11:33.310Z,104384
2018-04-10T10:12:33.412Z,107392
2018-04-10T10:13:33.241Z,111424
2018-04-10T10:14:33.246Z,115840
2018-04-10T10:15:33.243Z,115104
2018-04-10T10:16:33.243Z,118496
2018-04-10T10:17:33.180Z,112960
2018-04-10T10:18:33.198Z,110272
2018-04-10T10:19:33.133Z,108864
2018-04-10T10:20:33.140Z,108384
2018-04-10T10:21:33.239Z,114880
2018-04-10T10:22:33.192Z,115808
2018-04-10T10:23:33.160Z,118816
2018-04-10T10:24:33.199Z,120768
2018-04-10T10:25:33.259Z,120128
2018-04-10T10:26:33.134Z,119296
2018-04-10T10:27:33.354Z,119200
2018-04-10T10:28:33.346Z,119648
2018-04-10T10:29:33.300Z,120448
2018-04-10T10:30:33.293Z,121696
2018-04-10T10:31:33.347Z,122496
2018-04-10T10:32:33.352Z,124224
2018-04-10T10:33:33.299Z,125600
2018-04-10T10:34:33.248Z,125824
2018-04-10T10:35:33.241Z,124384
2018-04-10T10:36:33.358Z,124448
2018-04-10T10:37:33.326Z,123904
2018-04-10T10:38:33.274Z,123616
2018-04-10T10:39:33.256Z,121472
2018-04-10T10:40:33.217Z,120672
2018-04-10T10:41:33.258Z,120864
2018-04-10T10:42:33.327Z,121952
2018-04-10T10:43:33.261Z,123104
2018-04-10T10:44:33.333Z,123648
2018-04-10T10:45:33.263Z,123264
2018-04-10T10:46:33.230Z,122880
2018-04-10T10:47:33.267Z,122912
2018-04-10T10:48:33.236Z,121120
2018-04-10T10:49:33.361Z,118464
2018-04-10T10:50:33.363Z,118240
2018-04-10T10:51:33.307Z,119616
2018-04-10T10:52:33.356Z,121376
2018-04-10T10:53:33.334Z,122656
2018-04-10T10:54:33.356Z,121696
2018-04-10T10:55:33.364Z,120608
2018-04-10T10:56:33.301Z,120960
2018-04-10T10:57:33.339Z,119872
2018-04-10T10:58:33.269Z,118400
2018-04-10T10:59:33.270Z,118016
2018-04-10T11:00:33.270Z,118432
2018-04-10T11:01:33.233Z,119456
2018-04-10T11:02:33.271Z,120064
2018-04-10T11:03:33.271Z,120320
2018-04-10T11:04:33.272Z,121248
2018-04-10T11:05:33.346Z,122848
2018-04-10T11:06:33.312Z,123232
2018-04-10T11:07:33.248Z,122752
2018-04-10T11:08:33.302Z,122880
2018-04-10T11:09:33.309Z,123232
2018-04-10T11:10:33.340Z,124000
2018-04-10T11:11:33.338Z,123808
2018-04-10T11:12:33.237Z,123296
2018-04-10T11:13:33.306Z,122528
2018-04-10T11:14:33.264Z,124320
2018-04-10T11:15:33.292Z,125536
2018-04-10T11:16:33.317Z,127776
2018-04-10T11:17:33.384Z,128256
2018-04-10T11:18:33.391Z,128032
2018-04-10T11:19:33.382Z,126976
2018-04-10T11:20:33.389Z,126112
2018-04-10T11:21:33.388Z,124832
2018-04-10T11:22:33.357Z,124320
2018-04-10T11:23:33.290Z,122528
2018-04-10T11:24:33.280Z,121376
2018-04-10T11:25:33.277Z,119360
2018-04-10T11:26:33.353Z,117376
2018-04-10T11:27:33.384Z,114688
2018-04-10T11:28:33.294Z,113696
2018-04-10T11:29:33.385Z,116064
2018-04-10T11:30:33.332Z,117088
2018-04-10T11:31:33.322Z,120096
2018-04-10T11:32:33.403Z,120480
2018-04-10T11:33:33.391Z,120064
2018-04-10T11:34:33.365Z,118144
2018-04-10T11:35:33.322Z,115904
2018-04-10T11:36:33.403Z,116576
2018-04-10T11:37:33.303Z,118752
2018-04-10T11:38:33.424Z,121440
2018-04-10T11:39:33.392Z,121824
2018-04-10T11:40:33.383Z,122656
2018-04-10T11:41:33.368Z,119840
2018-04-10T11:42:33.389Z,118080
2018-04-10T11:43:33.389Z,118080
2018-04-10T11:44:33.284Z,120288
2018-04-10T11:45:33.292Z,123584
2018-04-10T11:46:33.399Z,127808
2018-04-10T11:47:33.311Z,130272
2018-04-10T11:48:33.374Z,131712
2018-04-10T11:49:33.330Z,130080
2018-04-10T11:50:33.413Z,127648
2018-04-10T11:51:33.370Z,124768
2018-04-10T11:52:33.376Z,119808
2018-04-10T11:53:33.280Z,115200
2018-04-10T11:54:33.406Z,113632
2018-04-10T11:55:33.346Z,114624
2018-04-10T11:56:33.406Z,115488
2018-04-10T11:57:33.405Z,117856
2018-04-10T11:58:33.334Z,121248
2018-04-10T11:59:33.423Z,122112
2018-04-10T12:00:33.336Z,120640
2018-04-10T12:01:33.435Z,119712
2018-04-10T12:02:33.355Z,117600
2018-04-10T12:03:33.438Z,116512
2018-04-10T12:04:33.441Z,117472
2018-04-10T12:05:33.342Z,120160
2018-04-10T12:06:33.414Z,122432
2018-04-10T12:07:33.350Z,122592
2018-04-10T12:08:33.306Z,121920
2018-04-10T12:09:33.386Z,120448
2018-04-10T12:10:33.343Z,119584
2018-04-10T12:11:33.331Z,119616
2018-04-10T12:12:33.357Z,120928
2018-04-10T12:13:33.363Z,120704
2018-04-10T12:14:33.382Z,120384
2018-04-10T12:15:33.296Z,119040
2018-04-10T12:16:33.423Z,116864
2018-04-10T12:17:33.444Z,115296
2018-04-10T12:18:33.293Z,114592
2018-04-10T12:19:33.360Z,114656
2018-04-10T12:20:33.311Z,113696
2018-04-10T12:21:33.426Z,113376
2018-04-10T12:22:33.389Z,112832
2018-04-10T12:23:33.387Z,111296
2018-04-10T12:24:33.315Z,110880
2018-04-10T12:25:33.413Z,110016
2018-04-10T12:26:33.358Z,110880
2018-04-10T12:27:33.313Z,112352
2018-04-10T12:28:33.424Z,114304
2018-04-10T12:29:33.394Z,114784
2018-04-10T12:30:33.362Z,113632
2018-04-10T12:31:33.374Z,111360
2018-04-10T12:32:33.432Z,110528
2018-04-10T12:33:33.335Z,112352
2018-04-10T12:34:33.363Z,115872
2018-04-10T12:35:33.375Z,118976
2018-04-10T12:36:33.428Z,118912
2018-04-10T12:37:33.307Z,116224
2018-04-10T12:38:33.307Z,113856
2018-04-10T12:39:33.263Z,110400
2018-04-10T12:40:33.364Z,111840
2018-04-10T12:41:33.309Z,111520
2018-04-10T12:42:33.321Z,111136
2018-04-10T12:43:33.312Z,111936
2018-04-10T12:44:33.263Z,113600
2018-04-10T12:45:33.261Z,105216
2018-04-10T12:46:33.305Z,97056
2018-04-10T12:47:33.426Z,105792
2018-04-10T12:48:33.430Z,101184
2018-04-10T12:49:33.450Z,80576
2018-04-10T12:50:33.414Z,87456
2018-04-10T12:51:33.427Z,77024
2018-04-10T12:52:33.383Z,94432
2018-04-10T12:53:33.450Z,110272
2018-04-10T12:54:33.442Z,101536
2018-04-10T12:55:33.389Z,92640
2018-04-10T12:56:33.440Z,97664
2018-04-10T12:57:33.452Z,99872
2018-04-10T12:58:33.347Z,89152
2018-04-10T12:59:33.447Z,98176
2018-04-10T13:00:33.443Z,69504
2018-04-10T13:01:33.470Z,60544
2018-04-10T13:02:33.423Z,52352
2018-04-10T13:03:33.462Z,51232
2018-04-10T13:04:33.353Z,50112
2018-04-10T13:05:33.336Z,49504
2018-04-10T13:06:33.422Z,48704
2018-04-10T13:07:33.360Z,43872
2018-04-10T13:08:33.348Z,45024
2018-04-10T13:09:33.336Z,47520
2018-04-10T13:10:33.343Z,56768
2018-04-10T13:11:33.340Z,52320
2018-04-10T13:12:33.382Z,51584
2018-04-10T13:13:33.423Z,55072
2018-04-10T13:14:33.416Z,70304
2018-04-10T13:15:33.325Z,59872
2018-04-10T13:16:33.450Z,64704
2018-04-10T13:17:33.354Z,65536
2018-04-10T13:18:33.446Z,55904
2018-04-10T13:19:33.359Z,55520
2018-04-10T13:20:33.359Z,50048
2018-04-10T13:21:33.359Z,45856